createdAt,value
2022-09-16T00:00:48.135Z,99750.91
2022-09-16T00:03:54.911Z,99750.78
2022-09-16T00:06:56.391Z,99754.59
2022-09-16T00:09:57.900Z,99753.72
2022-09-16T00:12:59.452Z,99754.72
2022-09-16T00:16:01.183Z,99753.91
2022-09-16T00:19:03.555Z,99760.41
2022-09-16T00:22:05.771Z,99759.25
2022-09-16T00:25:07.667Z,99762.94
2022-09-16T00:28:09.501Z,99760.25
2022-09-16T00:31:11.246Z,99760.41
2022-09-16T00:34:12.955Z,99756.00
2022-09-16T00:37:14.514Z,99749.06
2022-09-16T00:40:16.405Z,99755.88
2022-09-16T00:43:19.922Z,99755.03
2022-09-16T00:46:36.181Z,99752.47
2022-09-16T00:49:37.921Z,99752.47
2022-09-16T00:52:41.447Z,99753.47
2022-09-16T00:55:44.603Z,99744.69
2022-09-16T00:58:50.960Z,99746.66
2022-09-16T01:01:55.830Z,99745.94
2022-09-16T01:04:57.455Z,99742.28
2022-09-16T01:07:59.440Z,99745.09
2022-09-16T01:11:01.053Z,99743.13
2022-09-16T01:14:22.887Z,99743.25
2022-09-16T01:17:39.680Z,99734.94
2022-09-16T01:21:11.695Z,99741.44
2022-09-16T01:24:19.223Z,99743.53
2022-09-16T01:27:26.757Z,99750.63
2022-09-16T01:30:51.435Z,99752.19
2022-09-16T01:34:14.704Z,99749.50
2022-09-16T01:37:32.826Z,99749.63
2022-09-16T01:40:37.337Z,99751.59
2022-09-16T01:44:12.738Z,99759.38
2022-09-16T01:47:27.421Z,99755.13
2022-09-16T01:50:59.532Z,99759.66
2022-09-16T01:54:21.299Z,99761.22
2022-09-16T01:57:43.058Z,99761.09
2022-09-16T02:00:48.831Z,99748.50
2022-09-16T02:03:59.220Z,99756.28
2022-09-16T02:07:04.020Z,99755.31
2022-09-16T02:10:20.395Z,99757.72
2022-09-16T02:13:40.182Z,99753.31
2022-09-16T02:17:02.284Z,99747.94
2022-09-16T02:20:11.194Z,99746.38
2022-09-16T02:23:20.354Z,99736.63
2022-09-16T02:26:29.120Z,99738.31
2022-09-16T02:29:42.680Z,99743.69
2022-09-16T02:32:48.600Z,99741.88
2022-09-16T02:35:54.105Z,99744.41
2022-09-16T02:39:09.372Z,99747.81
2022-09-16T02:42:11.695Z,99742.00
2022-09-16T02:45:13.985Z,99740.16
2022-09-16T02:48:39.432Z,99732.94
2022-09-16T02:52:04.828Z,99732.69
2022-09-16T02:55:22.582Z,99731.97
2022-09-16T02:58:24.189Z,99736.34
2022-09-16T03:01:27.275Z,99739.88
2022-09-16T03:04:29.171Z,99746.25
2022-09-16T03:07:30.877Z,99751.63
2022-09-16T03:10:42.604Z,99738.47
2022-09-16T03:14:04.342Z,99740.75
2022-09-16T03:17:11.816Z,99745.41
2022-09-16T03:20:44.234Z,99743.56
2022-09-16T03:23:54.763Z,99737.06
2022-09-16T03:27:08.998Z,99739.19
2022-09-16T03:30:11.711Z,99739.19
2022-09-16T03:33:23.670Z,99740.88
2022-09-16T03:36:33.461Z,99746.97
2022-09-16T03:39:36.857Z,99739.88
2022-09-16T03:42:40.125Z,99742.41
2022-09-16T03:45:42.834Z,99745.00
2022-09-16T03:48:44.856Z,99734.91
2022-09-16T03:51:46.497Z,99726.72
2022-09-16T03:54:48.088Z,99725.72
2022-09-16T03:57:49.653Z,99723.03
2022-09-16T04:00:51.742Z,99728.28
2022-09-16T04:03:53.436Z,99723.03
2022-09-16T04:06:55.422Z,99723.75
2022-09-16T04:09:57.004Z,99734.22
2022-09-16T04:12:58.853Z,99722.50
2022-09-16T04:16:01.605Z,99725.91
2022-09-16T04:19:03.329Z,99721.38
2022-09-16T04:22:05.056Z,99724.34
2022-09-16T04:25:07.402Z,99726.16
2022-09-16T04:28:09.130Z,99728.16
2022-09-16T04:31:12.606Z,99725.72
2022-09-16T04:34:14.341Z,99714.28
2022-09-16T04:37:15.953Z,99709.31
2022-09-16T04:40:17.694Z,99706.50
2022-09-16T04:43:19.504Z,99704.94
2022-09-16T04:46:21.065Z,99709.72
2022-09-16T04:49:22.691Z,99700.69
2022-09-16T04:52:24.385Z,99712.41
2022-09-16T04:55:25.960Z,99718.78
2022-09-16T04:58:29.438Z,99717.66
2022-09-16T05:01:33.324Z,99717.66
2022-09-16T05:04:34.935Z,99711.56
2022-09-16T05:07:36.499Z,99713.97
2022-09-16T05:10:38.126Z,99714.97
2022-09-16T05:13:40.138Z,99718.94
2022-09-16T05:16:42.200Z,99725.31
2022-09-16T05:19:43.708Z,99724.44
2022-09-16T05:22:45.683Z,99716.25
2022-09-16T05:25:47.262Z,99712.00
2022-09-16T05:28:50.882Z,99717.69
2022-09-16T05:31:52.475Z,99706.66
2022-09-16T05:34:54.817Z,99702.81
2022-09-16T05:37:56.401Z,99705.50
2022-09-16T05:41:05.233Z,99710.31
2022-09-16T05:44:07.088Z,99711.03
2022-09-16T05:47:08.642Z,99721.50
2022-09-16T05:50:10.201Z,99723.22
2022-09-16T05:53:11.785Z,99729.13
2022-09-16T05:56:18.878Z,99730.56
2022-09-16T05:59:20.806Z,99732.38
2022-09-16T06:02:22.475Z,99733.25
2022-09-16T06:05:24.183Z,99733.50
2022-09-16T06:08:26.395Z,99739.59
2022-09-16T06:11:29.008Z,99744.13
2022-09-16T06:14:31.076Z,99738.47
2022-09-16T06:17:32.725Z,99738.63
2022-09-16T06:20:36.577Z,99735.22
2022-09-16T06:23:39.758Z,99727.88
2022-09-16T06:26:42.949Z,99712.59
2022-09-16T06:29:44.551Z,99719.25
2022-09-16T06:32:46.120Z,99723.63
2022-09-16T06:35:47.782Z,99726.72
2022-09-16T06:38:51.220Z,99728.81
2022-09-16T06:41:53.317Z,99720.03
2022-09-16T06:45:04.817Z,99716.78
2022-09-16T06:48:06.611Z,99721.47
2022-09-16T06:51:11.021Z,99714.94
2022-09-16T06:54:12.792Z,99710.72
2022-09-16T06:57:14.401Z,99717.88
2022-09-16T07:00:16.083Z,99715.25
2022-09-16T07:03:17.961Z,99704.63
2022-09-16T07:06:21.317Z,99720.03
2022-09-16T07:09:23.386Z,99716.47
2022-09-16T07:12:25.052Z,99722.44
2022-09-16T07:15:26.602Z,99719.47
2022-09-16T07:18:30.243Z,99723.59
2022-09-16T07:21:32.093Z,99731.81
2022-09-16T07:24:34.210Z,99725.00
2022-09-16T07:27:35.881Z,99728.25
2022-09-16T07:30:39.034Z,99725.28
2022-09-16T07:33:43.081Z,99724.81
2022-09-16T07:36:47.326Z,99725.22
2022-09-16T07:39:49.829Z,99720.25
2022-09-16T07:42:51.462Z,99730.47
2022-09-16T07:45:59.627Z,99722.50
2022-09-16T07:49:03.197Z,99733.38
2022-09-16T07:52:04.833Z,99733.22
2022-09-16T07:55:06.577Z,99730.22
2022-09-16T07:58:08.211Z,99731.47
2022-09-16T08:01:09.920Z,99725.34
2022-09-16T08:04:12.285Z,99729.16
2022-09-16T08:07:13.945Z,99732.94
2022-09-16T08:10:16.268Z,99735.19
2022-09-16T08:13:18.007Z,99737.13
2022-09-16T08:16:22.069Z,99734.88
2022-09-16T08:19:23.667Z,99732.59
2022-09-16T08:22:25.862Z,99728.31
2022-09-16T08:25:27.524Z,99733.78
2022-09-16T08:28:39.937Z,99733.59
2022-09-16T08:31:52.079Z,99737.31
2022-09-16T08:34:53.717Z,99734.47
2022-09-16T08:37:56.593Z,99739.25
2022-09-16T08:41:08.592Z,99733.94
2022-09-16T08:44:34.170Z,99736.56
2022-09-16T08:48:04.205Z,99734.69
2022-09-16T08:51:09.630Z,99733.97
2022-09-16T08:54:18.319Z,99751.00
2022-09-16T08:57:23.482Z,99743.53
2022-09-16T09:00:25.332Z,99733.91
2022-09-16T09:03:46.953Z,99737.13
2022-09-16T09:06:52.623Z,99751.16
2022-09-16T09:10:25.823Z,99753.81
2022-09-16T09:13:55.744Z,99746.47
2022-09-16T09:17:19.351Z,99745.28
2022-09-16T09:20:58.638Z,99743.63
2022-09-16T09:24:18.301Z,99752.69
2022-09-16T09:27:41.779Z,99749.94
2022-09-16T09:30:59.935Z,99744.31
2022-09-16T09:34:20.150Z,99743.16
2022-09-16T09:37:42.489Z,99741.13
2022-09-16T09:40:52.529Z,99739.44
2022-09-16T09:44:04.674Z,99733.44
2022-09-16T09:47:21.762Z,99738.81
2022-09-16T09:50:26.420Z,99734.41
2022-09-16T09:53:43.842Z,99734.84
2022-09-16T09:56:46.162Z,99729.22
2022-09-16T09:59:55.530Z,99723.28
2022-09-16T10:03:11.556Z,99713.84
2022-09-16T10:06:13.378Z,99712.00
2022-09-16T10:09:17.016Z,99712.56
2022-09-16T10:12:33.815Z,99722.09
2022-09-16T10:15:36.221Z,99713.97
2022-09-16T10:18:38.244Z,99716.16
2022-09-16T10:21:55.246Z,99723.41
2022-09-16T10:24:58.367Z,99720.78
2022-09-16T10:28:02.165Z,99714.53
2022-09-16T10:31:08.461Z,99720.22
2022-09-16T10:34:23.889Z,99722.75
2022-09-16T10:37:28.100Z,99714.28
2022-09-16T10:40:31.117Z,99708.25
2022-09-16T10:43:32.873Z,99705.50
2022-09-16T10:46:35.160Z,99704.72
2022-09-16T10:49:50.361Z,99697.25
2022-09-16T10:52:53.538Z,99697.97
2022-09-16T10:56:05.606Z,99689.25
2022-09-16T10:59:12.668Z,99687.25
2022-09-16T11:02:49.903Z,99692.94
2022-09-16T11:06:03.658Z,99693.25
2022-09-16T11:09:40.792Z,99692.25
2022-09-16T11:13:09.930Z,99670.34
2022-09-16T11:16:39.317Z,99679.28
2022-09-16T11:19:54.880Z,99677.78
2022-09-16T11:23:18.289Z,99685.75
2022-09-16T11:27:00.871Z,99668.00
2022-09-16T11:30:15.198Z,99659.72
2022-09-16T11:33:22.524Z,99657.66
2022-09-16T11:36:35.730Z,99656.31
2022-09-16T11:39:40.028Z,99652.22
2022-09-16T11:42:49.319Z,99656.28
2022-09-16T11:46:07.527Z,99654.28
2022-09-16T11:49:27.590Z,99667.47
2022-09-16T11:52:46.826Z,99691.16
2022-09-16T11:56:15.742Z,99699.00
2022-09-16T11:59:40.258Z,99696.66
2022-09-16T12:03:04.661Z,99676.81
2022-09-16T12:06:12.434Z,99666.44
2022-09-16T12:09:20.206Z,99661.69
2022-09-16T12:12:45.319Z,99659.84
2022-09-16T12:15:59.746Z,99656.19
2022-09-16T12:19:11.298Z,99648.50
2022-09-16T12:22:22.785Z,99644.00
2022-09-16T12:25:38.243Z,99636.81
2022-09-16T12:28:49.031Z,99642.38
2022-09-16T12:31:51.279Z,99642.44
2022-09-16T12:35:06.243Z,99643.34
2022-09-16T12:38:18.418Z,99634.97
2022-09-16T12:41:35.107Z,99631.44
2022-09-16T12:44:58.753Z,99623.13
2022-09-16T12:48:28.780Z,99628.38
2022-09-16T12:51:50.126Z,99619.75
2022-09-16T12:55:07.681Z,99607.09
2022-09-16T12:58:49.252Z,99609.31
2022-09-16T13:01:59.662Z,99624.88
2022-09-16T13:05:14.406Z,99627.09
2022-09-16T13:08:23.203Z,99631.13
2022-09-16T13:12:16.520Z,99619.94
2022-09-16T13:14:57.072Z,99656.50
2022-09-16T13:18:21.126Z,99670.91
2022-09-16T13:21:29.882Z,99652.44
2022-09-16T13:24:38.045Z,99656.00
2022-09-16T13:27:51.995Z,99643.81
2022-09-16T13:30:54.552Z,99652.41
2022-09-16T13:33:59.207Z,99654.13
2022-09-16T13:37:00.799Z,99653.09
2022-09-16T13:40:26.450Z,99655.47
2022-09-16T13:43:36.547Z,99668.50
2022-09-16T13:46:38.612Z,99696.38
2022-09-16T13:49:47.040Z,99702.00
2022-09-16T13:52:50.452Z,99707.66
2022-09-16T13:55:55.713Z,99713.69
2022-09-16T13:59:21.807Z,99673.94
2022-09-16T14:02:35.387Z,99659.84
2022-09-16T14:06:03.724Z,99642.03
2022-09-16T14:09:20.412Z,99646.84
2022-09-16T14:12:36.548Z,99641.28
2022-09-16T14:15:43.909Z,99635.56
2022-09-16T14:18:57.500Z,99642.19
2022-09-16T14:22:16.980Z,99636.38
2022-09-16T14:25:29.415Z,99641.88
2022-09-16T14:28:32.352Z,99649.59
2022-09-16T14:31:37.431Z,99643.63
2022-09-16T14:34:39.069Z,99673.94
2022-09-16T14:37:44.589Z,99667.06
2022-09-16T14:40:46.755Z,99625.94
2022-09-16T14:43:48.749Z,99622.84
2022-09-16T14:47:08.835Z,99632.97
2022-09-16T14:50:19.458Z,99629.56
2022-09-16T14:53:35.301Z,99613.81
2022-09-16T14:56:38.467Z,99612.81
2022-09-16T14:59:44.561Z,99609.16
2022-09-16T15:02:52.806Z,99614.47
2022-09-16T15:05:55.859Z,99613.31
2022-09-16T15:09:06.617Z,99606.78
2022-09-16T15:12:19.847Z,99610.19
2022-09-16T15:15:27.526Z,99609.78
2022-09-16T15:18:34.808Z,99613.19
2022-09-16T15:21:38.681Z,99604.06
2022-09-16T15:24:41.563Z,99603.88
2022-09-16T15:27:43.124Z,99601.09
2022-09-16T15:30:50.596Z,99609.56
2022-09-16T15:33:52.548Z,99604.28
2022-09-16T15:36:58.650Z,99596.28
2022-09-16T15:40:20.921Z,99597.00
2022-09-16T15:43:29.505Z,99596.50
2022-09-16T15:46:31.323Z,99597.22
2022-09-16T15:49:38.255Z,99594.50
2022-09-16T15:52:48.986Z,99589.44
2022-09-16T15:56:22.608Z,99577.44
2022-09-16T15:59:51.120Z,99575.34
2022-09-16T16:02:57.391Z,99570.25
2022-09-16T16:05:59.155Z,99579.66
2022-09-16T16:09:00.696Z,99574.56
2022-09-16T16:12:07.531Z,99573.88
2022-09-16T16:15:09.243Z,99577.88
2022-09-16T16:18:12.297Z,99579.03
2022-09-16T16:21:16.191Z,99571.94
2022-09-16T16:24:17.926Z,99570.81
2022-09-16T16:27:20.280Z,99572.47
2022-09-16T16:30:21.919Z,99569.66
2022-09-16T16:33:23.511Z,99570.63
2022-09-16T16:36:25.244Z,99569.78
2022-09-16T16:39:26.868Z,99571.66
2022-09-16T16:42:28.860Z,99563.56
2022-09-16T16:45:31.200Z,99567.09
2022-09-16T16:48:32.818Z,99560.03
2022-09-16T16:51:34.507Z,99562.56
2022-09-16T16:54:36.330Z,99568.94
2022-09-16T16:57:37.951Z,99561.00
2022-09-16T17:00:40.009Z,99561.84
2022-09-16T17:03:42.312Z,99562.56
2022-09-16T17:06:44.897Z,99554.66
2022-09-16T17:09:46.418Z,99560.88
2022-09-16T17:12:48.016Z,99567.09
2022-09-16T17:15:49.798Z,99568.09
2022-09-16T17:18:52.754Z,99570.94
2022-09-16T17:21:55.813Z,99561.31
2022-09-16T17:24:57.767Z,99571.25
2022-09-16T17:27:59.474Z,99569.41
2022-09-16T17:31:01.137Z,99580.16
2022-09-16T17:34:07.371Z,99579.34
2022-09-16T17:37:08.996Z,99593.09
2022-09-16T17:40:11.057Z,99589.53
2022-09-16T17:43:15.682Z,99590.09
2022-09-16T17:46:20.170Z,99590.25
2022-09-16T17:49:23.774Z,99592.94
2022-09-16T17:52:25.595Z,99587.72
2022-09-16T17:55:29.984Z,99585.31
2022-09-16T17:58:32.065Z,99581.94
2022-09-16T18:06:47.400Z,99587.19
2022-09-16T18:10:39.170Z,99582.81
2022-09-16T18:18:24.697Z,99590.81
2022-09-16T18:30:49.538Z,99614.38
2022-09-16T19:00:28.672Z,99621.81
2022-09-16T19:04:11.011Z,99629.19
2022-09-16T19:11:16.004Z,99613.53
2022-09-16T19:32:43.910Z,99623.72
2022-09-16T19:39:32.909Z,99626.41
2022-09-16T19:43:10.568Z,99616.97
2022-09-16T19:50:32.361Z,99596.88
2022-09-16T19:53:42.214Z,99596.19
2022-09-16T20:00:57.586Z,99609.59
2022-09-16T20:04:11.829Z,99584.00
2022-09-16T20:07:30.942Z,99583.16
2022-09-16T20:10:32.677Z,99572.84
2022-09-16T20:14:09.298Z,99584.72
2022-09-16T20:34:31.345Z,99588.50
2022-09-16T20:37:53.191Z,99585.53
2022-09-16T20:45:48.655Z,99611.53
2022-09-16T20:49:16.908Z,99609.00
2022-09-16T21:03:41.062Z,99621.00
2022-09-16T21:11:53.225Z,99621.13
2022-09-16T21:15:17.413Z,99617.75
2022-09-16T21:18:50.760Z,99617.16
2022-09-16T21:22:59.645Z,99630.59
2022-09-16T21:29:57.379Z,99643.00
2022-09-16T21:38:18.531Z,99652.19
2022-09-16T21:41:24.625Z,99654.72
2022-09-16T21:44:29.031Z,99656.44
2022-09-16T21:47:38.147Z,99661.22
2022-09-16T21:59:01.052Z,99663.66
2022-09-16T22:02:12.311Z,99669.13
2022-09-16T22:06:03.727Z,99675.34
2022-09-16T22:09:21.594Z,99678.88
2022-09-16T22:12:26.930Z,99676.44
2022-09-16T22:15:31.195Z,99677.44
2022-09-16T22:18:42.571Z,99681.09
2022-09-16T22:22:02.486Z,99676.59
2022-09-16T22:25:05.103Z,99678.41
2022-09-16T22:28:09.588Z,99680.25
2022-09-16T22:31:16.674Z,99673.75
2022-09-16T22:34:18.483Z,99690.84
2022-09-16T22:37:20.049Z,99677.19
2022-09-16T22:40:21.781Z,99673.50
2022-09-16T22:43:23.490Z,99673.38
2022-09-16T22:46:32.293Z,99676.63
2022-09-16T22:49:34.085Z,99676.63
2022-09-16T22:52:36.066Z,99682.72
2022-09-16T22:55:37.660Z,99678.34
2022-09-16T22:58:39.570Z,99679.06
2022-09-16T23:01:43.487Z,99678.06
2022-09-16T23:04:50.437Z,99681.19
2022-09-16T23:08:04.114Z,99693.50
2022-09-16T23:11:09.386Z,99692.38
2022-09-16T23:14:22.570Z,99687.72
2022-09-16T23:17:27.093Z,99701.03
2022-09-16T23:20:28.891Z,99696.34
2022-09-16T23:23:41.878Z,99695.50
2022-09-16T23:26:50.535Z,99690.84
2022-09-16T23:29:53.795Z,99689.16
2022-09-16T23:32:57.708Z,99682.91
2022-09-16T23:35:59.663Z,99686.03
2022-09-16T23:39:02.088Z,99688.88
2022-09-16T23:42:03.983Z,99688.88
2022-09-16T23:45:06.270Z,99688.72
2022-09-16T23:48:08.495Z,99689.44
2022-09-16T23:51:14.183Z,99692.13
2022-09-16T23:54:16.287Z,99691.28
2022-09-16T23:57:17.918Z,99688.47
